Time;durP1;ratioP1;P1;durP2;ratioP2;P2;SDS_P1;SDS_P2;PMS_P1;PMS_P2;Temp;Humidity;BMP_temperature;BMP_pressure;BME280_temperature;BME280_humidity;BME280_pressure;Samples;Min_cycle;Max_cycle;Signal;HPM_P1;HPM_P2
2023/03/04 00:01:59;;;;;;;11.73;3.60;;;5.60;99.90;;;;;;5014935;28;20037;-73
2023/03/04 00:04:25;;;;;;;17.73;3.45;;;5.70;99.90;;;;;;5018090;28;20021;-72
2023/03/04 00:06:51;;;;;;;26.73;3.30;;;5.60;99.90;;;;;;5018329;28;20045;-73
2023/03/04 00:09:16;;;;;;;13.88;3.08;;;5.70;99.90;;;;;;5021105;28;20029;-74
2023/03/04 00:11:42;;;;;;;15.63;3.10;;;5.70;99.90;;;;;;5013910;28;20025;-72
2023/03/04 00:14:08;;;;;;;18.98;3.63;;;5.70;99.90;;;;;;5013701;28;20022;-72
2023/03/04 00:16:34;;;;;;;13.95;2.45;;;5.70;99.90;;;;;;5021191;28;20040;-73
2023/03/04 00:18:59;;;;;;;11.70;2.35;;;5.70;99.90;;;;;;5020694;28;20029;-73
2023/03/04 00:21:25;;;;;;;20.10;2.80;;;5.70;99.90;;;;;;5016633;28;20096;-73
2023/03/04 00:23:51;;;;;;;9.70;1.83;;;5.70;99.90;;;;;;5015693;28;20029;-74
2023/03/04 00:26:16;;;;;;;13.43;2.15;;;5.70;99.90;;;;;;5014906;28;20034;-73
2023/03/04 00:28:42;;;;;;;11.35;2.08;;;5.70;99.90;;;;;;5017300;28;20108;-72
2023/03/04 00:31:09;;;;;;;13.20;2.33;;;5.70;99.90;;;;;;5017453;28;20033;-72
2023/03/04 00:33:35;;;;;;;11.73;2.42;;;5.70;99.90;;;;;;5016175;28;20076;-74
2023/03/04 00:36:02;;;;;;;14.07;2.30;;;5.80;99.90;;;;;;5014403;28;20651;-73
2023/03/04 00:38:28;;;;;;;13.93;2.20;;;5.80;99.90;;;;;;5011722;28;20029;-72
2023/03/04 00:40:54;;;;;;;9.88;1.98;;;5.80;99.90;;;;;;5015784;28;20057;-70
2023/03/04 00:43:20;;;;;;;15.95;2.45;;;5.80;99.90;;;;;;4995628;28;20288;-74
2023/03/04 00:45:46;;;;;;;8.32;2.00;;;5.80;99.90;;;;;;5034686;28;20030;-73
2023/03/04 00:48:12;;;;;;;11.73;3.03;;;5.80;99.90;;;;;;5008374;28;20040;-74
2023/03/04 00:50:37;;;;;;;19.90;2.08;;;5.80;99.90;;;;;;5017108;28;20025;-73
2023/03/04 00:53:03;;;;;;;9.40;1.88;;;5.80;99.90;;;;;;5000305;28;20025;-72
2023/03/04 00:55:29;;;;;;;15.00;2.10;;;5.80;99.90;;;;;;5011563;28;20022;-74
2023/03/04 00:57:55;;;;;;;9.68;1.70;;;5.80;99.90;;;;;;4997835;28;20029;-75
2023/03/04 01:00:21;;;;;;;10.02;1.60;;;5.80;99.90;;;;;;5019503;28;20522;-76
2023/03/04 01:02:46;;;;;;;10.38;2.08;;;5.80;99.90;;;;;;5012828;28;20064;-74
2023/03/04 01:05:13;;;;;;;12.80;2.00;;;5.80;99.90;;;;;;5018775;28;20046;-74
2023/03/04 01:07:38;;;;;;;14.82;2.28;;;5.80;99.90;;;;;;5020220;28;20100;-73
2023/03/04 01:10:06;;;;;;;8.38;1.77;;;5.80;99.90;;;;;;5020425;28;20092;-75
2023/03/04 01:12:32;;;;;;;11.52;1.80;;;5.80;99.90;;;;;;5016359;28;20580;-72
2023/03/04 01:14:58;;;;;;;13.00;1.85;;;5.80;99.90;;;;;;5011704;28;20181;-73
2023/03/04 01:17:24;;;;;;;9.93;1.60;;;5.80;99.90;;;;;;5015282;28;20048;-73
2023/03/04 01:19:49;;;;;;;8.57;1.58;;;5.80;99.90;;;;;;5012702;28;20030;-73
2023/03/04 01:22:17;;;;;;;9.68;1.90;;;5.80;99.90;;;;;;5016294;28;20088;-74
2023/03/04 01:24:44;;;;;;;8.68;1.35;;;5.80;99.90;;;;;;5016445;28;20022;-75
2023/03/04 01:27:09;;;;;;;11.70;2.22;;;5.80;99.90;;;;;;5014777;28;20029;-73
2023/03/04 01:29:35;;;;;;;9.82;2.20;;;5.80;99.90;;;;;;5011730;28;20061;-74
2023/03/04 01:32:01;;;;;;;11.88;2.10;;;5.80;99.90;;;;;;5012214;28;20388;-72
2023/03/04 01:34:27;;;;;;;10.57;1.80;;;5.80;99.90;;;;;;5014071;28;20113;-74
2023/03/04 01:36:53;;;;;;;19.38;2.05;;;5.80;99.90;;;;;;5018958;28;20083;-71
2023/03/04 01:39:18;;;;;;;6.70;1.35;;;5.80;99.90;;;;;;5014577;28;20546;-72
2023/03/04 01:41:44;;;;;;;10.80;1.73;;;5.80;99.90;;;;;;5014850;28;20026;-73
2023/03/04 01:44:10;;;;;;;9.77;1.10;;;5.80;99.90;;;;;;5014991;28;20527;-73
2023/03/04 01:46:37;;;;;;;7.32;1.35;;;5.80;99.90;;;;;;5014601;28;20088;-72
2023/03/04 01:49:05;;;;;;;11.63;1.70;;;5.80;99.90;;;;;;5015721;28;20026;-74
2023/03/04 01:51:30;;;;;;;12.63;1.73;;;5.80;99.90;;;;;;5012793;28;20505;-75
2023/03/04 01:53:56;;;;;;;9.20;1.52;;;5.80;99.90;;;;;;5019257;28;20042;-74
2023/03/04 01:56:29;;;;;;;7.88;1.30;;;5.80;99.90;;;;;;5018259;28;20041;-74
2023/03/04 01:59:08;;;;;;;9.07;1.25;;;5.80;99.90;;;;;;5001241;28;20152;-72
2023/03/04 02:01:35;;;;;;;11.85;1.45;;;5.80;99.90;;;;;;5015850;28;20080;-72
2023/03/04 02:04:01;;;;;;;12.75;1.60;;;5.80;99.90;;;;;;5015883;28;20151;-73
2023/03/04 02:06:27;;;;;;;15.13;2.22;;;5.90;99.90;;;;;;4999521;28;20079;-73
2023/03/04 02:08:53;;;;;;;11.35;1.40;;;5.90;99.90;;;;;;4991484;28;20105;-73
2023/03/04 02:11:19;;;;;;;10.45;1.65;;;5.90;99.90;;;;;;5018369;28;20026;-72
2023/03/04 02:13:44;;;;;;;8.15;1.48;;;5.90;99.90;;;;;;5019068;28;20163;-72
2023/03/04 02:16:10;;;;;;;8.98;1.60;;;5.90;99.90;;;;;;5020271;28;20030;-74
2023/03/04 02:18:36;;;;;;;11.00;1.42;;;5.90;99.90;;;;;;5002368;28;20048;-73
2023/03/04 02:21:08;;;;;;;15.93;1.80;;;5.90;99.90;;;;;;5018535;28;20033;-74
2023/03/04 02:23:42;;;;;;;9.27;1.40;;;5.90;99.90;;;;;;5014972;28;20069;-73
2023/03/04 02:26:07;;;;;;;11.15;1.80;;;5.90;99.90;;;;;;5017818;28;20073;-73
2023/03/04 02:28:33;;;;;;;10.30;1.70;;;5.90;99.90;;;;;;5018872;28;20505;-73
2023/03/04 02:30:59;;;;;;;14.68;1.70;;;5.90;99.90;;;;;;5017044;28;20117;-74
2023/03/04 02:33:24;;;;;;;12.15;1.52;;;5.90;99.90;;;;;;5018508;28;20072;-72
2023/03/04 02:35:50;;;;;;;8.32;1.98;;;5.90;99.90;;;;;;5017994;28;20457;-73
2023/03/04 02:38:16;;;;;;;8.48;1.60;;;5.90;99.90;;;;;;5015561;28;20036;-73
2023/03/04 02:40:46;;;;;;;13.35;1.90;;;5.90;99.90;;;;;;5018271;28;20022;-73
2023/03/04 02:43:11;;;;;;;14.17;2.40;;;5.90;99.90;;;;;;5014948;28;20037;-72
2023/03/04 02:45:44;;;;;;;11.73;2.30;;;5.90;99.90;;;;;;5025490;28;20056;-74
2023/03/04 02:48:11;;;;;;;11.80;1.58;;;5.90;99.90;;;;;;5017400;28;20033;-74
2023/03/04 02:50:47;;;;;;;15.30;2.53;;;5.90;99.90;;;;;;5019283;28;20026;-72
2023/03/04 02:53:14;;;;;;;17.27;1.75;;;5.90;99.90;;;;;;5016459;28;20105;-72
2023/03/04 02:55:41;;;;;;;11.77;2.15;;;5.90;99.90;;;;;;5001290;28;20113;-73
2023/03/04 02:58:06;;;;;;;10.48;1.73;;;5.90;99.90;;;;;;5014911;28;20418;-71
2023/03/04 03:00:32;;;;;;;8.65;1.73;;;6.00;99.90;;;;;;4998385;28;20136;-74
2023/03/04 03:02:58;;;;;;;14.93;1.98;;;5.90;99.90;;;;;;4998408;28;20038;-74
2023/03/04 03:05:28;;;;;;;13.18;1.92;;;5.90;99.90;;;;;;5017341;28;20172;-72
2023/03/04 03:07:54;;;;;;;12.83;2.47;;;5.90;99.90;;;;;;5015872;28;20033;-72
2023/03/04 03:10:20;;;;;;;17.98;3.60;;;5.90;99.90;;;;;;5014613;28;20204;-74
2023/03/04 03:12:46;;;;;;;13.35;1.77;;;5.90;99.90;;;;;;5016985;28;20029;-74
2023/03/04 03:15:12;;;;;;;18.02;1.95;;;5.90;99.90;;;;;;5015564;28;20287;-72
2023/03/04 03:17:38;;;;;;;12.43;1.98;;;5.90;99.90;;;;;;5015119;28;20039;-72
2023/03/04 03:20:04;;;;;;;11.30;2.30;;;5.90;99.90;;;;;;5015205;28;20607;-73
2023/03/04 03:22:30;;;;;;;11.60;1.67;;;5.90;99.90;;;;;;5018835;28;20041;-72
2023/03/04 03:24:55;;;;;;;14.05;2.35;;;5.90;99.90;;;;;;5017571;28;20497;-72
2023/03/04 03:27:21;;;;;;;15.90;2.13;;;5.90;99.90;;;;;;5018104;28;20355;-74
2023/03/04 03:29:47;;;;;;;18.75;2.67;;;5.90;99.90;;;;;;5017961;28;20482;-74
2023/03/04 03:32:13;;;;;;;12.05;1.80;;;5.90;99.90;;;;;;5017044;28;20022;-73
2023/03/04 03:34:38;;;;;;;6.57;1.55;;;5.90;99.90;;;;;;5018130;28;20497;-73
2023/03/04 03:37:04;;;;;;;9.55;2.10;;;5.90;99.90;;;;;;5018368;28;20029;-73
2023/03/04 03:39:30;;;;;;;9.85;1.75;;;5.90;99.90;;;;;;5018215;28;20449;-74
2023/03/04 03:41:55;;;;;;;19.30;2.45;;;5.90;99.90;;;;;;5014170;28;20068;-73
2023/03/04 03:44:21;;;;;;;10.23;1.63;;;5.90;99.90;;;;;;5014760;28;20436;-73
2023/03/04 03:46:47;;;;;;;16.13;2.20;;;5.90;99.90;;;;;;5017106;28;20583;-72
2023/03/04 03:49:12;;;;;;;13.10;2.05;;;5.90;99.90;;;;;;5016757;28;20036;-73
2023/03/04 03:51:38;;;;;;;7.68;1.75;;;5.90;99.90;;;;;;5016065;28;20397;-72
2023/03/04 03:54:04;;;;;;;10.85;2.10;;;5.90;99.90;;;;;;5018484;28;20033;-72
2023/03/04 03:56:30;;;;;;;10.75;1.80;;;5.80;99.90;;;;;;5018556;28;20524;-72
2023/03/04 03:58:55;;;;;;;12.48;1.73;;;5.80;99.90;;;;;;5015188;28;20041;-73
2023/03/04 04:01:21;;;;;;;15.82;2.13;;;5.80;99.90;;;;;;5016305;28;20032;-72
2023/03/04 04:03:47;;;;;;;10.05;1.80;;;5.80;99.90;;;;;;5019905;28;20026;-73
2023/03/04 04:06:13;;;;;;;10.98;1.83;;;5.80;99.90;;;;;;5017710;28;20040;-73
2023/03/04 04:08:38;;;;;;;16.27;2.55;;;5.80;99.90;;;;;;5016638;28;20127;-72
2023/03/04 04:11:04;;;;;;;13.52;2.00;;;5.80;99.90;;;;;;5015321;28;20021;-73
2023/03/04 04:13:30;;;;;;;8.43;1.88;;;5.80;99.90;;;;;;5001201;28;20021;-74
2023/03/04 04:15:56;;;;;;;13.95;1.90;;;5.80;99.90;;;;;;5014981;28;20233;-73
2023/03/04 04:18:22;;;;;;;15.15;1.73;;;5.80;99.90;;;;;;5014905;28;20033;-75
2023/03/04 04:20:50;;;;;;;15.95;1.67;;;5.80;99.90;;;;;;5015983;28;20508;-74
2023/03/04 04:23:15;;;;;;;10.15;1.80;;;5.80;99.90;;;;;;5007722;28;20021;-74
2023/03/04 04:25:42;;;;;;;8.95;2.00;;;5.80;99.90;;;;;;5001615;28;20072;-73
2023/03/04 04:28:08;;;;;;;9.90;1.80;;;5.90;99.90;;;;;;5016100;28;20102;-73
2023/03/04 04:30:34;;;;;;;6.53;1.45;;;5.90;99.90;;;;;;5015181;28;20025;-73
2023/03/04 04:33:03;;;;;;;10.48;1.58;;;5.90;99.90;;;;;;5020311;28;20704;-73
2023/03/04 04:35:32;;;;;;;13.05;2.30;;;5.90;99.90;;;;;;5025325;28;20949;-73
2023/03/04 04:37:58;;;;;;;13.50;2.10;;;6.00;99.90;;;;;;5012975;28;20140;-74
2023/03/04 04:40:24;;;;;;;7.40;1.58;;;5.90;99.90;;;;;;5015069;28;20561;-74
2023/03/04 04:42:50;;;;;;;13.02;2.35;;;5.90;99.90;;;;;;5017073;28;20025;-74
2023/03/04 04:45:16;;;;;;;14.10;2.33;;;5.90;99.90;;;;;;5021909;28;20034;-75
2023/03/04 04:47:41;;;;;;;9.65;1.90;;;5.90;99.90;;;;;;5015403;28;20021;-73
2023/03/04 04:50:09;;;;;;;8.25;1.50;;;6.00;99.90;;;;;;5021768;28;20036;-72
2023/03/04 04:52:37;;;;;;;9.30;1.98;;;5.90;99.90;;;;;;5020552;28;20658;-72
2023/03/04 04:55:03;;;;;;;10.82;1.58;;;5.90;99.90;;;;;;4999990;28;20405;-73
2023/03/04 04:57:29;;;;;;;13.98;1.83;;;5.90;99.90;;;;;;5013935;28;20061;-71
2023/03/04 04:59:54;;;;;;;9.27;1.70;;;5.90;99.90;;;;;;5019169;28;20500;-73
2023/03/04 05:02:20;;;;;;;10.18;1.83;;;5.90;99.90;;;;;;5017502;28;20029;-74
2023/03/04 05:04:46;;;;;;;11.23;2.25;;;5.90;99.90;;;;;;5016509;28;20037;-73
2023/03/04 05:07:11;;;;;;;10.80;1.48;;;5.90;99.90;;;;;;5014881;28;20026;-75
2023/03/04 05:09:37;;;;;;;11.40;1.75;;;5.90;99.90;;;;;;5017129;28;20028;-73
2023/03/04 05:12:03;;;;;;;11.30;2.25;;;5.90;99.90;;;;;;5013609;28;20026;-74
2023/03/04 05:14:29;;;;;;;13.02;2.38;;;5.80;99.90;;;;;;4997813;28;20029;-75
2023/03/04 05:16:55;;;;;;;12.68;2.17;;;5.80;99.90;;;;;;5017245;28;20057;-73
2023/03/04 05:19:21;;;;;;;10.73;2.00;;;5.80;99.90;;;;;;5016253;28;20618;-73
2023/03/04 05:21:47;;;;;;;14.13;2.50;;;5.80;99.90;;;;;;4996844;28;20030;-73
2023/03/04 05:24:12;;;;;;;12.02;2.22;;;5.80;99.90;;;;;;5017708;28;20040;-74
2023/03/04 05:26:38;;;;;;;13.20;2.45;;;5.70;99.90;;;;;;5011367;28;20056;-74
2023/03/04 05:29:04;;;;;;;15.15;2.95;;;5.80;99.90;;;;;;5019312;28;20025;-75
2023/03/04 05:31:30;;;;;;;17.20;2.60;;;5.80;99.90;;;;;;5012461;28;20504;-74
2023/03/04 05:33:55;;;;;;;16.58;2.72;;;5.70;99.90;;;;;;5015904;28;20159;-75
2023/03/04 05:36:21;;;;;;;21.70;2.95;;;5.70;99.90;;;;;;5016619;28;20032;-74
2023/03/04 05:38:47;;;;;;;20.65;3.00;;;5.70;99.90;;;;;;5016829;28;20029;-73
2023/03/04 05:41:13;;;;;;;18.17;3.40;;;5.70;99.90;;;;;;5015956;28;20057;-73
2023/03/04 05:43:43;;;;;;;13.73;3.10;;;5.70;99.90;;;;;;5013530;28;20036;-75
2023/03/04 05:46:14;;;;;;;17.17;3.13;;;5.80;99.90;;;;;;5015783;28;20053;-73
2023/03/04 05:48:39;;;;;;;19.10;3.72;;;5.70;99.90;;;;;;5014714;28;20033;-74
2023/03/04 05:51:05;;;;;;;18.08;3.40;;;5.80;99.90;;;;;;4995699;28;20029;-72
2023/03/04 05:53:31;;;;;;;18.10;3.40;;;5.70;99.90;;;;;;5016368;28;20022;-72
2023/03/04 05:56:00;;;;;;;22.30;3.40;;;5.80;99.90;;;;;;4998331;28;20053;-72
2023/03/04 05:58:25;;;;;;;19.85;3.85;;;5.80;99.90;;;;;;5018370;28;20034;-74
2023/03/04 06:00:51;;;;;;;14.18;3.70;;;5.80;99.90;;;;;;5029868;28;20512;-72
2023/03/04 06:03:21;;;;;;;16.67;3.08;;;5.80;99.90;;;;;;5017180;28;20087;-73
2023/03/04 06:05:47;;;;;;;22.48;3.70;;;5.80;99.90;;;;;;5020422;28;20045;-74
2023/03/04 06:08:13;;;;;;;24.45;3.85;;;5.80;99.90;;;;;;5016602;28;20421;-73
2023/03/04 06:10:40;;;;;;;22.65;4.05;;;5.80;99.90;;;;;;4998808;28;20037;-74
2023/03/04 06:13:06;;;;;;;28.30;4.65;;;5.80;99.90;;;;;;5018359;28;20026;-74
2023/03/04 06:15:32;;;;;;;19.42;4.45;;;5.80;99.90;;;;;;5016949;28;20632;-74
2023/03/04 06:17:58;;;;;;;21.92;4.60;;;5.80;99.90;;;;;;5010064;28;20029;-73
2023/03/04 06:20:24;;;;;;;19.35;3.53;;;5.80;99.90;;;;;;5017164;28;20044;-74
2023/03/04 06:22:49;;;;;;;22.92;5.28;;;5.80;99.90;;;;;;5020369;28;20028;-74
2023/03/04 06:25:15;;;;;;;17.23;4.05;;;5.80;99.90;;;;;;5013671;28;20773;-73
2023/03/04 06:27:41;;;;;;;37.80;5.40;;;5.80;99.90;;;;;;4997230;28;20485;-73
2023/03/04 06:30:07;;;;;;;19.92;4.18;;;5.80;99.90;;;;;;4999743;28;20076;-74
2023/03/04 06:32:33;;;;;;;26.30;3.75;;;5.80;99.90;;;;;;5014159;28;20462;-75
2023/03/04 06:34:59;;;;;;;21.98;3.92;;;5.80;99.90;;;;;;5017030;28;20105;-72
2023/03/04 06:37:25;;;;;;;20.58;3.00;;;5.70;99.90;;;;;;5016396;28;20048;-72
2023/03/04 06:39:51;;;;;;;19.40;3.10;;;5.70;99.90;;;;;;5020813;28;20385;-73
2023/03/04 06:42:16;;;;;;;22.52;3.50;;;5.70;99.90;;;;;;5004570;28;20037;-72
2023/03/04 06:44:42;;;;;;;18.58;3.10;;;5.70;99.90;;;;;;5020137;28;20026;-70
2023/03/04 06:47:08;;;;;;;17.95;3.20;;;5.70;99.90;;;;;;5021328;28;20028;-73
2023/03/04 06:49:34;;;;;;;23.67;3.28;;;5.70;99.90;;;;;;5020815;28;20118;-74
2023/03/04 06:51:59;;;;;;;17.02;2.63;;;5.60;99.90;;;;;;4998154;28;20063;-75
2023/03/04 06:54:25;;;;;;;16.88;3.50;;;5.60;99.90;;;;;;5019672;28;20043;-73
2023/03/04 06:56:53;;;;;;;19.48;2.67;;;5.60;99.90;;;;;;5019766;28;20036;-73
2023/03/04 06:59:20;;;;;;;18.40;2.42;;;5.60;99.90;;;;;;5019300;28;20519;-74
2023/03/04 07:01:45;;;;;;;20.35;3.10;;;5.60;99.90;;;;;;5014870;28;20038;-74
2023/03/04 07:04:13;;;;;;;10.07;1.80;;;5.60;99.90;;;;;;5012681;28;20034;-73
2023/03/04 07:06:39;;;;;;;16.45;2.72;;;5.60;99.90;;;;;;5006987;28;20045;-70
2023/03/04 07:09:05;;;;;;;22.50;2.95;;;5.60;99.90;;;;;;4997732;28;20033;-73
2023/03/04 07:11:30;;;;;;;18.08;2.67;;;5.60;99.90;;;;;;5015744;28;20029;-72
2023/03/04 07:13:56;;;;;;;15.88;2.40;;;5.60;99.90;;;;;;5019433;28;20031;-72
2023/03/04 07:16:22;;;;;;;16.02;2.00;;;5.60;99.90;;;;;;5022933;28;20051;-73
2023/03/04 07:18:48;;;;;;;18.80;2.40;;;5.60;99.90;;;;;;5015115;28;20065;-75
2023/03/04 07:21:16;;;;;;;14.75;2.13;;;5.50;99.90;;;;;;5017021;28;20845;-75
2023/03/04 07:23:43;;;;;;;14.27;2.60;;;5.50;99.90;;;;;;5021323;28;20744;-74
2023/03/04 07:26:09;;;;;;;15.45;2.35;;;5.50;99.90;;;;;;5017972;28;20037;-74
2023/03/04 07:28:35;;;;;;;10.57;2.08;;;5.50;99.90;;;;;;5001121;28;20026;-74
2023/03/04 07:31:28;;;;;;;19.48;2.97;;;5.60;99.90;;;;;;5017599;28;20508;-74
2023/03/04 07:33:59;;;;;;;15.15;2.08;;;5.60;99.90;;;;;;5012604;28;20414;-74
2023/03/04 07:36:25;;;;;;;12.98;2.25;;;5.50;99.90;;;;;;5000576;28;20044;-73
2023/03/04 07:38:53;;;;;;;20.58;2.30;;;5.50;99.90;;;;;;5016703;28;20021;-74
2023/03/04 07:41:20;;;;;;;12.60;2.35;;;5.50;99.90;;;;;;5017795;28;20415;-74
2023/03/04 07:43:47;;;;;;;16.73;2.50;;;5.50;99.90;;;;;;5015514;28;20426;-73
2023/03/04 07:46:13;;;;;;;18.65;2.85;;;5.50;99.90;;;;;;5007433;28;20092;-74
2023/03/04 07:48:39;;;;;;;18.77;3.10;;;5.50;99.90;;;;;;5011364;28;20498;-73
2023/03/04 07:51:17;;;;;;;15.43;2.75;;;5.50;99.90;;;;;;5011258;28;20045;-73
2023/03/04 07:53:45;;;;;;;19.10;2.80;;;5.60;99.90;;;;;;5011305;28;20049;-74
2023/03/04 07:56:13;;;;;;;17.77;2.90;;;5.60;99.90;;;;;;5011435;28;20112;-72
2023/03/04 07:58:39;;;;;;;17.42;3.30;;;5.60;99.90;;;;;;5009237;28;20048;-74
2023/03/04 08:01:14;;;;;;;20.85;3.20;;;5.60;99.90;;;;;;5016151;28;20029;-75
2023/03/04 08:03:40;;;;;;;19.75;2.90;;;5.60;99.90;;;;;;5012462;28;20552;-74
2023/03/04 08:06:12;;;;;;;22.25;3.38;;;5.60;99.90;;;;;;5014882;28;20413;-74
2023/03/04 08:08:38;;;;;;;18.17;3.53;;;5.50;99.90;;;;;;5013206;28;20034;-72
2023/03/04 08:11:10;;;;;;;24.15;3.53;;;5.60;99.90;;;;;;5014134;28;20104;-72
2023/03/04 08:13:36;;;;;;;18.13;3.33;;;5.50;99.90;;;;;;5010544;28;21745;-74
2023/03/04 08:16:02;;;;;;;19.73;3.80;;;5.50;99.90;;;;;;5006510;28;20116;-73
2023/03/04 08:18:27;;;;;;;26.45;3.67;;;5.50;99.90;;;;;;5017314;28;20155;-73
2023/03/04 08:20:53;;;;;;;24.92;3.28;;;5.60;99.90;;;;;;5009730;28;20283;-74
2023/03/04 08:23:19;;;;;;;25.20;3.17;;;5.60;99.90;;;;;;5011473;28;20063;-74
2023/03/04 08:25:45;;;;;;;22.10;3.70;;;5.60;99.90;;;;;;5013428;28;20507;-74
2023/03/04 08:28:13;;;;;;;21.55;3.90;;;5.60;99.90;;;;;;5011336;28;20021;-74
2023/03/04 08:30:39;;;;;;;17.42;2.70;;;5.60;99.90;;;;;;5015680;28;20040;-75
2023/03/04 08:33:06;;;;;;;16.42;3.08;;;5.60;99.90;;;;;;5026722;28;20025;-73
2023/03/04 08:35:32;;;;;;;25.65;3.28;;;5.60;99.90;;;;;;5008629;28;20030;-73
2023/03/04 08:37:58;;;;;;;24.55;3.47;;;5.60;99.90;;;;;;5019451;28;20032;-76
2023/03/04 08:40:25;;;;;;;21.63;3.40;;;5.60;99.90;;;;;;4998387;28;20037;-74
2023/03/04 08:42:52;;;;;;;16.15;3.17;;;5.60;99.90;;;;;;5017804;28;20032;-73
2023/03/04 08:45:18;;;;;;;17.00;3.90;;;5.60;99.90;;;;;;4999459;28;20401;-73
2023/03/04 08:47:44;;;;;;;23.17;3.28;;;5.60;99.90;;;;;;5007458;28;20584;-73
2023/03/04 08:50:10;;;;;;;29.88;4.95;;;5.60;99.90;;;;;;5005303;28;20040;-72
2023/03/04 08:52:36;;;;;;;24.63;3.78;;;5.60;99.90;;;;;;5008572;28;20025;-74
2023/03/04 08:55:02;;;;;;;23.85;2.83;;;5.60;99.90;;;;;;5009113;28;20040;-74
2023/03/04 08:57:28;;;;;;;23.73;3.28;;;5.50;99.90;;;;;;5010751;28;20446;-74
2023/03/04 08:59:54;;;;;;;21.38;3.53;;;5.60;99.90;;;;;;5009162;28;20124;-74
2023/03/04 09:02:20;;;;;;;19.50;3.30;;;5.60;99.90;;;;;;5009992;28;20022;-73
2023/03/04 09:04:46;;;;;;;26.45;4.22;;;5.60;99.90;;;;;;5009678;28;20038;-74
2023/03/04 09:07:13;;;;;;;21.10;3.60;;;5.50;99.90;;;;;;5010726;28;20497;-73
2023/03/04 09:09:39;;;;;;;23.17;3.72;;;5.60;99.90;;;;;;5016706;28;20025;-73
2023/03/04 09:12:06;;;;;;;25.75;4.35;;;5.60;99.90;;;;;;5013882;28;20424;-72
2023/03/04 09:14:34;;;;;;;20.55;3.38;;;5.60;99.90;;;;;;5011631;28;20026;-75
2023/03/04 09:17:02;;;;;;;23.60;3.92;;;5.60;99.90;;;;;;5010473;28;20030;-74
2023/03/04 09:19:28;;;;;;;17.95;3.40;;;5.60;99.90;;;;;;5010404;28;20109;-74
2023/03/04 09:21:54;;;;;;;16.63;3.30;;;5.60;99.90;;;;;;5003104;28;20039;-73
2023/03/04 09:24:21;;;;;;;15.65;3.20;;;5.60;99.90;;;;;;5008252;28;20168;-75
2023/03/04 09:26:52;;;;;;;19.92;3.33;;;5.60;99.90;;;;;;5004201;28;20497;-75
2023/03/04 09:29:17;;;;;;;25.13;3.90;;;5.60;99.90;;;;;;5016922;28;20037;-73
2023/03/04 09:31:44;;;;;;;21.05;3.30;;;5.60;99.90;;;;;;5015867;28;20053;-74
2023/03/04 09:34:09;;;;;;;27.13;3.78;;;5.60;99.90;;;;;;5012255;28;20021;-74
2023/03/04 09:36:35;;;;;;;26.15;3.90;;;5.60;99.90;;;;;;5012887;28;20049;-79
2023/03/04 09:39:03;;;;;;;16.13;2.65;;;5.60;99.90;;;;;;5015210;28;20030;-75
2023/03/04 09:41:51;;;;;;;19.17;3.47;;;5.70;99.90;;;;;;5015026;28;20056;-71
2023/03/04 09:44:23;;;;;;;18.85;3.63;;;5.60;99.90;;;;;;5024375;28;20037;-73
2023/03/04 09:46:53;;;;;;;18.65;3.30;;;5.70;99.90;;;;;;4998383;28;20370;-72
2023/03/04 09:49:22;;;;;;;24.37;3.63;;;5.70;99.90;;;;;;5013930;28;20068;-74
2023/03/04 09:52:17;;;;;;;21.70;3.30;;;5.70;99.90;;;;;;5014522;28;20780;-73
2023/03/04 09:55:11;;;;;;;18.35;3.67;;;5.80;99.90;;;;;;5016267;28;20405;-72
2023/03/04 09:57:50;;;;;;;21.60;3.47;;;5.70;99.90;;;;;;5015802;28;20113;-72
2023/03/04 10:00:29;;;;;;;24.10;3.97;;;5.70;99.90;;;;;;4999236;28;20032;-73
2023/03/04 10:03:09;;;;;;;27.10;3.92;;;5.70;99.90;;;;;;4992883;28;20056;-74
2023/03/04 10:05:47;;;;;;;19.17;3.40;;;5.70;99.90;;;;;;5008418;28;20060;-73
2023/03/04 10:08:38;;;;;;;27.35;3.78;;;5.70;99.90;;;;;;5007175;28;20029;-72
2023/03/04 10:11:30;;;;;;;27.02;3.20;;;5.80;99.90;;;;;;5013270;28;20375;-75
2023/03/04 10:14:14;;;;;;;20.73;3.25;;;5.80;99.90;;;;;;5008935;28;20533;-74
2023/03/04 10:16:52;;;;;;;21.05;3.97;;;5.80;99.90;;;;;;5016587;28;20030;-72
2023/03/04 10:19:37;;;;;;;22.17;4.05;;;5.90;99.90;;;;;;5012248;28;20038;-74
2023/03/04 10:22:27;;;;;;;21.92;2.83;;;5.80;99.90;;;;;;5001458;28;20036;-74
2023/03/04 10:24:56;;;;;;;25.00;4.25;;;5.80;99.90;;;;;;4999446;28;20512;-74
2023/03/04 10:27:23;;;;;;;19.23;3.38;;;5.90;99.90;;;;;;5001383;28;20036;-74
2023/03/04 10:29:49;;;;;;;27.65;3.95;;;6.00;99.90;;;;;;4996974;28;20519;-74
2023/03/04 10:32:18;;;;;;;18.85;3.40;;;6.40;99.90;;;;;;5016310;28;20026;-74
2023/03/04 10:34:43;;;;;;;19.88;3.63;;;6.20;99.90;;;;;;5018744;28;20780;-73
2023/03/04 10:37:10;;;;;;;20.83;3.80;;;6.10;99.90;;;;;;5020993;28;20040;-74
2023/03/04 10:39:45;;;;;;;23.45;3.72;;;6.00;99.90;;;;;;5017206;28;20499;-75
2023/03/04 10:42:13;;;;;;;22.17;4.32;;;6.00;99.90;;;;;;5017671;28;20128;-72
2023/03/04 10:44:59;;;;;;;21.52;3.92;;;6.00;99.90;;;;;;5020671;28;20032;-74
2023/03/04 10:47:28;;;;;;;24.98;4.40;;;6.00;99.90;;;;;;5018362;28;20084;-74
2023/03/04 10:49:59;;;;;;;27.85;4.50;;;6.00;99.90;;;;;;5018310;28;20036;-74
2023/03/04 10:52:34;;;;;;;25.67;3.47;;;6.00;99.90;;;;;;5016127;28;20022;-74
2023/03/04 10:55:03;;;;;;;18.23;3.95;;;6.10;99.90;;;;;;5020999;28;20547;-74
2023/03/04 10:57:36;;;;;;;21.27;3.72;;;6.10;99.90;;;;;;5019703;28;20393;-73
2023/03/04 11:00:25;;;;;;;26.90;4.25;;;6.10;99.90;;;;;;5018928;28;20540;-73
2023/03/04 11:02:51;;;;;;;24.55;3.80;;;6.20;99.90;;;;;;5018729;28;20030;-73
2023/03/04 11:05:23;;;;;;;21.85;3.88;;;6.20;99.90;;;;;;5015811;28;20041;-74
2023/03/04 11:07:59;;;;;;;20.38;4.53;;;6.20;99.90;;;;;;5002604;28;20481;-73
2023/03/04 11:10:26;;;;;;;19.40;3.28;;;6.30;99.90;;;;;;5021166;28;20025;-73
2023/03/04 11:13:10;;;;;;;22.38;3.67;;;6.40;99.90;;;;;;5019247;28;20022;-74
2023/03/04 11:15:56;;;;;;;21.23;3.30;;;6.40;99.90;;;;;;5022714;28;20493;-74
2023/03/04 11:18:43;;;;;;;122.20;45.60;;;6.50;99.90;;;;;;5019361;28;20109;-74
2023/03/04 11:21:16;;;;;;;205.75;93.85;;;6.60;99.90;;;;;;5018175;28;20029;-74
2023/03/04 11:24:31;;;;;;;48.28;16.52;;;6.60;99.90;;;;;;5015746;28;20032;-74
2023/03/04 11:27:11;;;;;;;32.63;4.93;;;6.60;99.90;;;;;;4933098;28;20042;-74
2023/03/04 11:29:47;;;;;;;19.27;3.78;;;6.60;99.90;;;;;;5027700;28;20041;-72
2023/03/04 11:32:31;;;;;;;17.17;3.15;;;6.50;99.90;;;;;;5017203;28;20025;-75
2023/03/04 11:35:27;;;;;;;22.98;4.07;;;6.50;99.90;;;;;;5018716;28;20022;-75
2023/03/04 11:38:04;;;;;;;22.80;3.80;;;6.40;99.90;;;;;;5007918;28;20026;-74
2023/03/04 11:40:55;;;;;;;19.65;3.78;;;6.40;99.90;;;;;;5003534;28;20064;-74
2023/03/04 11:43:35;;;;;;;;;;;6.50;99.90;;;;;;5013889;28;20026;-74
2023/03/04 11:46:10;;;;;;;26.45;3.90;;;6.30;99.90;;;;;;5018693;28;19913;-75
2023/03/04 11:48:54;;;;;;;21.58;3.55;;;6.30;99.90;;;;;;5018937;28;20036;-75
2023/03/04 11:51:41;;;;;;;22.17;3.45;;;6.30;99.90;;;;;;5001554;28;20025;-73
2023/03/04 11:54:22;;;;;;;20.25;3.42;;;6.30;99.90;;;;;;5018949;28;20496;-72
2023/03/04 11:56:57;;;;;;;29.27;3.22;;;6.40;99.90;;;;;;5019449;28;20072;-73
2023/03/04 11:59:29;;;;;;;28.23;4.40;;;6.40;99.90;;;;;;5018400;28;20461;-73
2023/03/04 12:02:09;;;;;;;17.63;2.90;;;6.50;99.90;;;;;;5022653;28;20030;-73
2023/03/04 12:04:39;;;;;;;22.83;3.45;;;6.60;99.90;;;;;;5017437;28;20056;-73
2023/03/04 12:07:20;;;;;;;23.90;4.20;;;6.70;99.90;;;;;;5017800;28;20025;-72
2023/03/04 12:09:59;;;;;;;23.52;3.63;;;6.70;99.90;;;;;;5002016;28;20029;-73
2023/03/04 12:12:28;;;;;;;22.52;3.75;;;6.70;99.90;;;;;;5020369;28;20099;-73
2023/03/04 12:15:17;;;;;;;21.38;4.75;;;6.60;99.90;;;;;;5028221;28;20053;-72
2023/03/04 12:17:58;;;;;;;18.85;3.25;;;6.50;99.90;;;;;;5031776;28;20029;-74
2023/03/04 12:20:29;;;;;;;19.05;3.55;;;6.50;99.90;;;;;;5031242;28;20037;-74
2023/03/04 12:23:23;;;;;;;22.02;4.22;;;6.40;99.90;;;;;;5019122;28;20042;-75
2023/03/04 12:25:59;;;;;;;27.50;3.80;;;6.50;99.90;;;;;;5020760;28;20030;-73
2023/03/04 12:28:52;;;;;;;25.23;4.15;;;6.50;99.90;;;;;;5016702;28;20022;-73
2023/03/04 12:31:45;;;;;;;22.13;3.35;;;6.50;99.90;;;;;;5021161;28;20099;-74
2023/03/04 12:34:48;;;;;;;17.85;3.70;;;6.60;99.90;;;;;;5017356;28;20037;-74
2023/03/04 12:37:19;;;;;;;14.52;3.72;;;6.60;99.90;;;;;;5021305;28;20026;-74
2023/03/04 12:39:48;;;;;;;24.45;3.05;;;6.70;99.90;;;;;;5024084;28;20026;-75
2023/03/04 12:42:46;;;;;;;16.50;3.35;;;6.80;99.90;;;;;;5017989;28;20037;-74
2023/03/04 12:45:30;;;;;;;20.35;3.10;;;6.70;99.90;;;;;;5018257;28;20026;-74
2023/03/04 12:48:14;;;;;;;18.83;3.25;;;6.70;99.90;;;;;;5019959;28;20026;-74
2023/03/04 12:50:56;;;;;;;20.77;3.45;;;6.70;99.90;;;;;;5020981;28;20096;-73
2023/03/04 12:53:49;;;;;;;16.95;3.78;;;6.70;99.90;;;;;;5023701;28;20112;-75
2023/03/04 12:56:27;;;;;;;18.55;3.17;;;6.70;99.90;;;;;;5023502;28;20116;-74
2023/03/04 12:58:53;;;;;;;18.17;3.28;;;6.60;99.90;;;;;;5016914;28;20036;-73
2023/03/04 13:01:31;;;;;;;15.55;3.30;;;6.60;99.90;;;;;;5016415;28;20489;-74